Time;durP1;ratioP1;P1;durP2;ratioP2;P2;SDS_P1;SDS_P2;PMS_P1;PMS_P2;Temp;Humidity;BMP_temperature;BMP_pressure;BME280_temperature;BME280_humidity;BME280_pressure;Samples;Min_cycle;Max_cycle;Signal;HPM_P1;HPM_P2
2021/05/27 00:01:16;;;;;;;2.47;2.27;;;11.20;99.90;;;;;;5025087;28;20271;-70
2021/05/27 00:03:41;;;;;;;3.13;2.30;;;11.20;99.90;;;;;;5023818;28;20247;-69
2021/05/27 00:06:07;;;;;;;1.97;1.77;;;11.20;99.90;;;;;;5024846;28;20220;-67
2021/05/27 00:08:32;;;;;;;5.47;1.93;;;11.10;99.90;;;;;;5026743;28;20265;-69
2021/05/27 00:10:58;;;;;;;2.00;1.90;;;11.20;99.90;;;;;;5023375;28;20611;-68
2021/05/27 00:13:24;;;;;;;2.70;2.10;;;11.10;99.90;;;;;;5025168;28;20242;-69
2021/05/27 00:15:49;;;;;;;3.47;2.20;;;11.20;99.90;;;;;;5005695;28;20220;-68
2021/05/27 00:18:15;;;;;;;3.10;2.07;;;11.20;99.90;;;;;;5024013;28;20208;-69
2021/05/27 00:20:41;;;;;;;2.40;2.20;;;11.20;99.90;;;;;;5022446;28;20877;-69
2021/05/27 00:23:06;;;;;;;2.30;2.10;;;11.30;99.90;;;;;;5025209;28;20188;-69
2021/05/27 00:25:32;;;;;;;3.47;2.20;;;11.30;99.90;;;;;;5023500;28;20547;-70
2021/05/27 00:27:58;;;;;;;2.97;1.90;;;11.30;99.90;;;;;;5019285;28;20208;-70
2021/05/27 00:30:26;;;;;;;2.30;2.10;;;11.20;99.90;;;;;;5026655;28;20188;-69
2021/05/27 00:32:51;;;;;;;2.03;1.93;;;11.20;99.90;;;;;;5022264;28;20207;-69
2021/05/27 00:35:17;;;;;;;2.50;2.30;;;11.20;99.90;;;;;;5024472;28;20522;-69
2021/05/27 00:37:43;;;;;;;5.30;2.30;;;11.20;99.90;;;;;;5022918;28;20266;-68
2021/05/27 00:40:12;;;;;;;2.67;2.43;;;11.30;99.90;;;;;;5022426;28;20195;-69
2021/05/27 00:42:38;;;;;;;2.30;2.10;;;11.20;99.90;;;;;;5026572;28;20517;-69
2021/05/27 00:45:12;;;;;;;2.30;2.10;;;11.20;99.90;;;;;;5023673;28;20427;-70
2021/05/27 00:47:39;;;;;;;2.40;2.20;;;11.30;99.90;;;;;;5021953;28;20482;-68
2021/05/27 00:50:07;;;;;;;2.83;2.20;;;11.40;99.90;;;;;;5025045;28;20423;-68
2021/05/27 00:52:33;;;;;;;2.50;2.30;;;11.30;99.90;;;;;;5022259;28;20431;-69
2021/05/27 00:55:02;;;;;;;2.63;2.30;;;11.40;99.90;;;;;;5024664;28;21197;-69
2021/05/27 00:57:36;;;;;;;2.60;2.40;;;11.40;99.90;;;;;;5024240;28;20459;-69
2021/05/27 01:00:09;;;;;;;2.43;2.23;;;11.40;99.90;;;;;;5023211;28;20489;-69
2021/05/27 01:02:35;;;;;;;2.47;2.10;;;11.30;99.90;;;;;;5022453;28;20447;-68
2021/05/27 01:05:01;;;;;;;3.10;2.20;;;11.30;99.90;;;;;;5022613;28;20485;-69
2021/05/27 01:07:27;;;;;;;2.20;2.10;;;11.30;99.90;;;;;;5037410;28;20217;-68
2021/05/27 01:09:52;;;;;;;3.20;2.77;;;11.30;99.90;;;;;;5025111;28;20534;-71
2021/05/27 01:12:18;;;;;;;2.77;2.10;;;11.20;99.90;;;;;;5027065;28;20202;-71
2021/05/27 01:17:28;;;;;;;3.53;2.20;;;11.30;99.90;;;;;;5022874;28;20740;-70
2021/05/27 01:19:54;;;;;;;2.30;2.10;;;11.30;99.90;;;;;;5023795;28;20527;-68
2021/05/27 01:22:21;;;;;;;3.20;2.47;;;11.20;99.90;;;;;;5022938;28;20589;-70
2021/05/27 01:24:48;;;;;;;2.77;2.20;;;11.30;99.90;;;;;;5024112;28;20423;-72
2021/05/27 01:27:14;;;;;;;3.03;2.50;;;11.40;99.90;;;;;;5023177;28;20462;-69
2021/05/27 01:29:41;;;;;;;4.97;2.50;;;11.40;99.90;;;;;;5025210;28;20461;-69
2021/05/27 01:32:08;;;;;;;2.57;2.37;;;11.40;99.90;;;;;;5022130;28;20435;-70
2021/05/27 01:34:34;;;;;;;2.60;2.40;;;11.40;99.90;;;;;;5023164;28;20439;-68
2021/05/27 01:37:00;;;;;;;4.33;2.60;;;11.50;99.90;;;;;;5022334;28;20557;-68
2021/05/27 01:39:25;;;;;;;2.60;2.40;;;11.50;99.90;;;;;;5025325;28;20518;-68
2021/05/27 01:41:51;;;;;;;2.63;2.43;;;11.50;99.90;;;;;;5023866;28;20228;-69
2021/05/27 01:44:16;;;;;;;2.60;2.40;;;11.50;99.90;;;;;;5021005;28;20196;-70
2021/05/27 01:46:42;;;;;;;3.10;2.80;;;11.50;99.90;;;;;;5024990;28;20231;-69
2021/05/27 01:49:09;;;;;;;3.40;2.23;;;11.50;99.90;;;;;;5022873;28;20188;-68
2021/05/27 01:51:35;;;;;;;3.23;2.93;;;11.50;99.90;;;;;;5022147;28;20262;-68
2021/05/27 01:54:00;;;;;;;3.63;2.50;;;11.50;99.90;;;;;;5026693;28;20478;-68
2021/05/27 01:56:26;;;;;;;5.43;2.70;;;11.60;99.90;;;;;;5022077;28;20716;-68
2021/05/27 01:58:51;;;;;;;2.70;2.50;;;11.50;99.90;;;;;;5019246;28;20265;-70
2021/05/27 02:01:17;;;;;;;3.30;2.70;;;11.50;99.90;;;;;;5026232;28;20195;-68
2021/05/27 02:03:43;;;;;;;2.90;2.60;;;11.50;99.90;;;;;;5023448;28;20220;-68
2021/05/27 02:06:08;;;;;;;3.63;2.93;;;11.40;99.90;;;;;;5024093;28;20204;-69
2021/05/27 02:08:34;;;;;;;2.83;2.50;;;11.40;99.90;;;;;;5023682;28;20200;-69
2021/05/27 02:11:00;;;;;;;2.63;2.43;;;11.30;99.90;;;;;;5024770;28;20212;-70
2021/05/27 02:13:25;;;;;;;3.00;2.40;;;11.40;99.90;;;;;;5026194;28;20203;-69
2021/05/27 02:15:51;;;;;;;3.60;2.73;;;11.40;99.90;;;;;;5025771;28;20263;-68
2021/05/27 02:18:16;;;;;;;2.90;2.70;;;11.40;99.90;;;;;;5024868;28;20720;-70
2021/05/27 02:20:42;;;;;;;3.53;2.60;;;11.30;99.90;;;;;;5029253;28;20997;-70
2021/05/27 02:23:08;;;;;;;3.00;2.80;;;11.30;99.90;;;;;;5023283;28;20839;-70
2021/05/27 02:25:34;;;;;;;2.90;2.70;;;11.30;99.90;;;;;;5025366;28;20459;-68
2021/05/27 02:27:59;;;;;;;3.07;2.77;;;11.30;99.90;;;;;;5027186;28;20283;-68
2021/05/27 02:30:25;;;;;;;3.13;2.60;;;11.30;99.90;;;;;;5028557;28;20200;-70
2021/05/27 02:32:51;;;;;;;2.93;2.70;;;11.10;99.90;;;;;;5027329;28;20192;-69
2021/05/27 02:35:17;;;;;;;3.10;2.77;;;11.10;99.90;;;;;;5024289;28;20201;-69
2021/05/27 02:37:42;;;;;;;2.83;2.60;;;11.10;99.90;;;;;;5024698;28;20205;-69
2021/05/27 02:40:09;;;;;;;3.13;2.83;;;11.10;99.90;;;;;;5025273;28;20550;-69
2021/05/27 02:42:34;;;;;;;2.53;2.33;;;11.00;99.90;;;;;;5027258;28;20334;-68
2021/05/27 02:45:00;;;;;;;4.10;2.80;;;11.00;99.90;;;;;;5025882;28;20522;-71
2021/05/27 02:47:25;;;;;;;3.33;2.83;;;11.00;99.90;;;;;;5026288;28;20617;-71
2021/05/27 02:49:51;;;;;;;3.60;2.90;;;11.00;99.90;;;;;;5027195;28;20211;-70
2021/05/27 02:52:17;;;;;;;3.77;3.20;;;11.00;99.90;;;;;;5025821;28;20222;-67
2021/05/27 02:54:42;;;;;;;3.00;2.80;;;10.90;99.90;;;;;;5027326;28;20186;-68
2021/05/27 02:57:08;;;;;;;4.10;3.20;;;10.80;99.90;;;;;;5024214;28;20216;-68
2021/05/27 02:59:33;;;;;;;2.93;2.70;;;10.90;99.90;;;;;;5026563;28;20550;-67
2021/05/27 03:01:59;;;;;;;7.03;3.03;;;11.00;99.90;;;;;;5024838;28;21430;-70
2021/05/27 03:04:25;;;;;;;5.70;3.23;;;11.00;99.90;;;;;;5025967;28;20200;-70
2021/05/27 03:06:50;;;;;;;3.53;2.83;;;10.90;99.90;;;;;;5023948;28;20212;-70
2021/05/27 03:09:16;;;;;;;3.13;2.57;;;10.90;99.90;;;;;;5026267;28;20184;-66
2021/05/27 03:11:41;;;;;;;3.37;2.80;;;10.90;99.90;;;;;;5024555;28;20246;-71
2021/05/27 03:14:07;;;;;;;5.67;2.87;;;10.90;99.90;;;;;;5028362;28;20203;-70
2021/05/27 03:16:33;;;;;;;3.17;2.87;;;10.90;99.90;;;;;;5024085;28;20224;-69
2021/05/27 03:18:58;;;;;;;3.10;2.73;;;10.90;99.90;;;;;;5023638;28;20188;-70
2021/05/27 03:21:24;;;;;;;3.13;2.80;;;10.90;99.90;;;;;;5025724;28;20193;-70
2021/05/27 03:23:50;;;;;;;2.83;2.60;;;11.00;99.90;;;;;;5023694;28;20188;-70
2021/05/27 03:26:16;;;;;;;5.13;2.80;;;11.00;99.90;;;;;;5024365;28;20278;-70
2021/05/27 03:28:42;;;;;;;2.97;2.67;;;11.00;99.90;;;;;;5025880;28;20200;-71
2021/05/27 03:31:07;;;;;;;3.20;2.90;;;10.90;99.90;;;;;;5022712;28;21001;-68
2021/05/27 03:33:33;;;;;;;3.47;3.17;;;10.80;99.90;;;;;;5022742;28;20997;-70
2021/05/27 03:35:59;;;;;;;3.10;2.77;;;10.80;99.90;;;;;;5021761;28;20223;-70
2021/05/27 03:38:24;;;;;;;3.17;2.70;;;10.90;99.90;;;;;;5023847;28;20274;-70
2021/05/27 03:40:51;;;;;;;2.80;2.40;;;11.00;99.90;;;;;;5023745;28;20765;-71
2021/05/27 03:43:17;;;;;;;3.00;2.70;;;11.10;99.90;;;;;;5026321;28;20439;-70
2021/05/27 03:45:42;;;;;;;3.07;2.80;;;11.10;99.90;;;;;;5025087;28;20462;-70
2021/05/27 03:48:08;;;;;;;3.80;2.70;;;11.10;99.90;;;;;;5024888;28;20287;-71
2021/05/27 03:50:35;;;;;;;3.07;2.87;;;11.10;99.90;;;;;;5025363;28;20195;-70
2021/05/27 03:53:00;;;;;;;3.30;2.97;;;11.10;99.90;;;;;;5026402;28;20193;-70
2021/05/27 03:55:27;;;;;;;3.53;2.90;;;11.20;99.90;;;;;;5026286;28;20513;-69
2021/05/27 03:57:53;;;;;;;2.80;2.60;;;11.00;99.90;;;;;;5023765;28;20505;-69
2021/05/27 04:03:26;;;;;;;3.80;3.00;;;11.00;99.90;;;;;;5000953;28;20455;-70
2021/05/27 04:08:36;;;;;;;2.70;2.50;;;11.00;99.90;;;;;;5014627;28;20501;-68
2021/05/27 04:11:01;;;;;;;3.20;2.90;;;11.00;99.90;;;;;;5025274;28;20443;-69
2021/05/27 04:13:27;;;;;;;3.40;3.10;;;11.00;99.90;;;;;;5027252;28;20575;-70
2021/05/27 04:15:53;;;;;;;6.20;2.87;;;11.00;99.90;;;;;;5023731;28;20311;-68
2021/05/27 04:18:20;;;;;;;6.17;2.80;;;11.00;99.90;;;;;;5025212;28;20219;-67
2021/05/27 04:20:52;;;;;;;4.10;3.67;;;11.00;99.90;;;;;;5025489;28;20474;-69
2021/05/27 04:23:36;;;;;;;3.90;3.50;;;11.00;99.90;;;;;;5023458;28;20495;-70
2021/05/27 04:26:22;;;;;;;2.90;2.70;;;11.10;99.90;;;;;;5024187;28;20549;-69
2021/05/27 04:28:48;;;;;;;3.70;3.30;;;11.20;99.90;;;;;;5025487;28;20462;-69
2021/05/27 04:31:17;;;;;;;4.00;3.60;;;11.20;99.90;;;;;;5020333;28;20862;-70
2021/05/27 04:33:42;;;;;;;3.47;3.17;;;11.20;99.90;;;;;;5023103;28;20431;-70
2021/05/27 04:36:09;;;;;;;4.57;3.17;;;11.20;99.90;;;;;;5023111;28;20448;-70
2021/05/27 04:38:35;;;;;;;4.33;3.13;;;11.20;99.90;;;;;;5021716;28;20597;-70
2021/05/27 04:41:00;;;;;;;4.03;3.63;;;11.20;99.90;;;;;;5022603;28;20446;-69
2021/05/27 04:43:26;;;;;;;5.67;3.47;;;11.30;99.90;;;;;;5024099;28;20538;-69
2021/05/27 04:45:52;;;;;;;4.13;3.27;;;11.30;99.90;;;;;;5024817;28;20211;-70
2021/05/27 04:48:17;;;;;;;4.90;3.57;;;11.40;99.90;;;;;;5024672;28;20188;-70
2021/05/27 04:50:46;;;;;;;3.40;3.10;;;11.30;99.90;;;;;;5024617;28;20200;-69
2021/05/27 04:53:12;;;;;;;4.30;3.53;;;11.40;99.90;;;;;;5022688;28;20245;-71
2021/05/27 04:55:38;;;;;;;3.97;3.00;;;11.30;99.90;;;;;;5025012;28;20471;-71
2021/05/27 04:58:04;;;;;;;4.20;3.80;;;11.20;99.90;;;;;;5023625;28;20466;-70
2021/05/27 05:00:31;;;;;;;4.03;3.67;;;11.20;99.90;;;;;;5022776;28;20207;-70
2021/05/27 05:02:58;;;;;;;5.20;3.20;;;11.20;99.90;;;;;;5024546;28;21016;-70
2021/05/27 05:05:24;;;;;;;5.50;3.57;;;11.10;99.90;;;;;;5021520;28;20466;-70
2021/05/27 05:07:50;;;;;;;4.70;3.17;;;11.30;99.90;;;;;;5023358;28;20451;-70
2021/05/27 05:10:18;;;;;;;5.60;3.93;;;11.30;99.90;;;;;;5026434;28;20439;-68
2021/05/27 05:12:47;;;;;;;4.20;3.77;;;11.20;99.90;;;;;;5023381;28;20799;-70
2021/05/27 05:15:20;;;;;;;3.67;3.37;;;11.30;99.90;;;;;;5024322;28;20495;-70
2021/05/27 05:17:58;;;;;;;6.23;3.20;;;11.30;99.90;;;;;;5025775;28;20993;-70
2021/05/27 05:20:26;;;;;;;3.60;3.30;;;11.50;99.90;;;;;;5022185;28;20427;-69
2021/05/27 05:22:53;;;;;;;3.53;3.23;;;11.40;99.90;;;;;;5025206;28;20442;-72
2021/05/27 05:25:19;;;;;;;3.97;3.57;;;11.40;99.90;;;;;;5022108;28;20441;-70
2021/05/27 05:27:45;;;;;;;7.77;4.30;;;11.50;99.90;;;;;;5021989;28;20442;-71
2021/05/27 05:30:12;;;;;;;4.00;3.60;;;11.40;99.90;;;;;;5020873;28;20508;-70
2021/05/27 05:32:38;;;;;;;4.23;3.50;;;11.60;99.90;;;;;;5025134;28;21039;-68
2021/05/27 05:35:06;;;;;;;5.70;3.90;;;11.50;99.90;;;;;;5022787;28;20430;-68
2021/05/27 05:37:31;;;;;;;4.53;3.47;;;11.60;99.90;;;;;;5023078;28;20219;-71
2021/05/27 05:39:57;;;;;;;5.50;3.90;;;11.60;99.90;;;;;;5025323;28;20431;-69
2021/05/27 05:42:23;;;;;;;3.80;3.50;;;11.60;99.90;;;;;;5023675;28;20219;-70
2021/05/27 05:44:49;;;;;;;4.90;3.80;;;11.70;99.90;;;;;;5023022;28;20223;-67
2021/05/27 05:47:14;;;;;;;4.43;3.60;;;11.80;99.90;;;;;;5023283;28;20458;-71
2021/05/27 05:49:40;;;;;;;5.23;3.60;;;11.70;99.90;;;;;;5025417;28;20258;-68
2021/05/27 05:52:05;;;;;;;5.47;3.87;;;11.80;99.90;;;;;;5027569;28;20193;-69
2021/05/27 05:54:31;;;;;;;7.93;4.57;;;11.80;99.90;;;;;;5026225;28;20204;-71
2021/05/27 05:56:57;;;;;;;3.73;3.50;;;11.80;99.90;;;;;;5026894;28;20216;-68
2021/05/27 05:59:22;;;;;;;4.27;3.87;;;11.80;99.90;;;;;;5027637;28;20363;-70
2021/05/27 06:01:50;;;;;;;5.77;4.10;;;11.90;99.90;;;;;;5026826;28;20185;-70
2021/05/27 06:04:16;;;;;;;3.97;3.67;;;12.00;99.90;;;;;;5026263;28;20199;-69
2021/05/27 06:06:42;;;;;;;4.67;4.27;;;12.20;99.90;;;;;;5029681;28;20455;-69
2021/05/27 06:09:07;;;;;;;3.87;3.57;;;12.20;99.90;;;;;;5024556;28;20192;-70
2021/05/27 06:11:33;;;;;;;5.03;4.30;;;12.20;99.90;;;;;;5026285;28;20651;-69
2021/05/27 06:13:59;;;;;;;6.63;4.27;;;12.20;99.90;;;;;;5030298;28;20195;-69
2021/05/27 06:16:25;;;;;;;5.20;3.97;;;12.30;99.90;;;;;;5024504;28;20258;-68
2021/05/27 06:18:51;;;;;;;4.60;3.67;;;12.30;99.90;;;;;;5026666;28;20501;-69
2021/05/27 06:21:16;;;;;;;4.63;4.23;;;12.40;99.90;;;;;;5025257;28;20189;-69
2021/05/27 06:23:42;;;;;;;7.50;4.17;;;12.40;99.90;;;;;;5026027;28;20685;-70
2021/05/27 06:26:08;;;;;;;3.53;3.23;;;12.50;99.90;;;;;;5027270;28;20291;-70
2021/05/27 06:28:33;;;;;;;6.00;4.10;;;12.50;99.90;;;;;;5025584;28;20640;-69
2021/05/27 06:30:59;;;;;;;5.73;4.30;;;12.50;99.90;;;;;;5023189;28;20200;-70
2021/05/27 06:33:24;;;;;;;4.10;3.70;;;12.60;99.90;;;;;;5027687;28;20208;-70
2021/05/27 06:35:50;;;;;;;5.43;4.93;;;12.70;99.90;;;;;;5025653;28;20217;-70
2021/05/27 06:38:16;;;;;;;3.93;3.63;;;12.70;99.90;;;;;;5024829;28;20228;-68
2021/05/27 06:40:42;;;;;;;8.10;4.33;;;12.70;99.90;;;;;;5016827;28;21616;-71
2021/05/27 06:43:08;;;;;;;5.60;3.63;;;12.60;99.90;;;;;;5018388;28;20191;-71
2021/05/27 06:45:34;;;;;;;4.63;4.07;;;12.60;99.90;;;;;;5023541;28;20447;-69
2021/05/27 06:48:00;;;;;;;3.97;3.67;;;12.60;99.90;;;;;;5025718;28;20228;-68
2021/05/27 06:50:40;;;;;;;4.10;3.57;;;12.50;99.90;;;;;;5024530;28;20471;-69
2021/05/27 06:53:08;;;;;;;3.80;3.47;;;12.60;99.90;;;;;;5024843;28;20195;-67
2021/05/27 06:55:35;;;;;;;4.53;4.13;;;12.70;99.90;;;;;;5028390;28;20533;-70
2021/05/27 06:58:01;;;;;;;5.77;3.90;;;12.70;99.90;;;;;;5024371;28;20548;-69
2021/05/27 07:00:28;;;;;;;6.93;4.30;;;12.70;99.90;;;;;;5024715;28;20439;-68
2021/05/27 07:02:54;;;;;;;4.33;3.93;;;12.90;99.90;;;;;;5025657;28;20787;-69
2021/05/27 07:05:20;;;;;;;3.90;3.60;;;12.70;99.90;;;;;;5025117;28;20465;-67
2021/05/27 07:07:46;;;;;;;4.43;4.03;;;12.70;99.90;;;;;;5022179;28;20202;-68
2021/05/27 07:10:16;;;;;;;3.90;3.40;;;12.80;99.90;;;;;;5023785;28;20423;-71
2021/05/27 07:12:50;;;;;;;4.43;3.90;;;12.90;99.90;;;;;;5020110;28;21162;-69
2021/05/27 07:15:17;;;;;;;4.30;3.90;;;13.00;99.90;;;;;;5021799;28;20514;-70
2021/05/27 07:17:43;;;;;;;5.23;4.00;;;13.00;99.90;;;;;;5022901;28;21158;-70
2021/05/27 07:20:09;;;;;;;5.10;3.57;;;13.10;99.90;;;;;;5021410;28;20431;-70
2021/05/27 07:22:35;;;;;;;5.97;4.07;;;13.20;99.90;;;;;;5026512;28;20199;-70
2021/05/27 07:25:00;;;;;;;3.90;3.60;;;13.20;99.90;;;;;;5022480;28;20985;-68
2021/05/27 07:27:26;;;;;;;4.60;4.17;;;13.20;99.90;;;;;;5026264;28;20299;-69
2021/05/27 07:29:52;;;;;;;8.27;3.80;;;13.30;99.90;;;;;;5021514;28;20235;-69
2021/05/27 07:32:17;;;;;;;4.60;4.10;;;13.20;99.90;;;;;;5019621;28;20200;-70
2021/05/27 07:34:46;;;;;;;5.57;3.83;;;13.10;99.90;;;;;;5021655;28;20223;-70
2021/05/27 07:37:12;;;;;;;4.17;3.87;;;13.20;99.90;;;;;;5022208;28;20212;-67
2021/05/27 07:39:38;;;;;;;4.00;3.40;;;13.20;99.90;;;;;;5023006;28;21221;-69
2021/05/27 07:42:06;;;;;;;12.70;3.97;;;13.30;99.90;;;;;;5021790;28;20481;-68
2021/05/27 07:44:33;;;;;;;4.80;4.03;;;13.30;99.90;;;;;;5023504;28;20192;-70
2021/05/27 07:46:59;;;;;;;3.90;3.60;;;13.30;99.90;;;;;;5022415;28;20906;-69
2021/05/27 07:49:25;;;;;;;9.40;4.67;;;13.40;99.90;;;;;;5023509;28;20454;-69
2021/05/27 07:51:50;;;;;;;3.70;3.40;;;13.60;99.90;;;;;;5023878;28;20208;-69
2021/05/27 07:54:16;;;;;;;4.03;3.73;;;13.70;99.90;;;;;;5013696;28;20203;-69
2021/05/27 07:56:41;;;;;;;6.37;3.80;;;13.70;99.90;;;;;;5018808;28;20924;-69
2021/05/27 07:59:07;;;;;;;4.53;4.13;;;13.70;99.90;;;;;;5023331;28;20176;-70
2021/05/27 08:01:33;;;;;;;3.80;3.50;;;13.60;99.90;;;;;;5003296;28;20193;-67
2021/05/27 08:03:58;;;;;;;4.37;3.70;;;13.60;99.90;;;;;;5019102;28;20262;-68
2021/05/27 08:06:24;;;;;;;3.90;3.30;;;13.60;99.90;;;;;;5022404;28;20290;-70
2021/05/27 08:08:49;;;;;;;4.90;3.40;;;13.70;99.90;;;;;;5023147;28;20208;-68
2021/05/27 08:11:15;;;;;;;4.13;3.73;;;13.60;99.90;;;;;;5023636;28;20294;-68
2021/05/27 08:13:41;;;;;;;5.00;3.50;;;13.70;99.90;;;;;;5025692;28;20195;-70
2021/05/27 08:16:07;;;;;;;4.10;3.70;;;13.90;99.90;;;;;;5016573;28;20637;-69
2021/05/27 08:18:33;;;;;;;5.50;4.30;;;14.00;99.90;;;;;;5023470;28;20475;-69
2021/05/27 08:20:58;;;;;;;6.17;3.80;;;14.10;99.90;;;;;;5021445;28;20185;-69
2021/05/27 08:23:24;;;;;;;6.57;4.20;;;14.20;99.90;;;;;;5023650;28;20193;-69
2021/05/27 08:25:50;;;;;;;4.27;3.50;;;14.30;99.90;;;;;;5026064;28;20228;-70
2021/05/27 08:28:15;;;;;;;4.90;3.73;;;14.30;99.90;;;;;;5020860;28;20242;-72
2021/05/27 08:30:41;;;;;;;3.80;3.50;;;14.30;99.90;;;;;;5021667;28;20196;-69
2021/05/27 08:33:07;;;;;;;6.00;3.50;;;14.20;99.90;;;;;;5023176;28;20200;-69
2021/05/27 08:35:32;;;;;;;4.10;3.80;;;14.20;99.90;;;;;;5021626;28;20200;-70
2021/05/27 08:37:58;;;;;;;4.23;3.77;;;14.40;99.90;;;;;;5021123;28;20315;-67
2021/05/27 08:40:24;;;;;;;5.10;4.20;;;14.40;99.90;;;;;;5022647;28;20681;-68
2021/05/27 08:42:50;;;;;;;3.97;3.57;;;14.50;99.90;;;;;;5022230;28;20223;-70
2021/05/27 08:45:18;;;;;;;5.17;3.57;;;14.40;99.90;;;;;;5021916;28;20666;-69
2021/05/27 08:47:44;;;;;;;3.80;3.50;;;14.20;99.90;;;;;;5020862;28;20465;-68
2021/05/27 08:50:10;;;;;;;4.23;3.73;;;14.10;99.90;;;;;;5020451;28;20443;-69
2021/05/27 08:52:36;;;;;;;3.93;3.60;;;14.10;99.90;;;;;;5023500;28;20439;-69
2021/05/27 08:55:02;;;;;;;4.07;3.70;;;14.00;99.90;;;;;;5021268;28;20466;-69
2021/05/27 08:57:28;;;;;;;5.60;3.50;;;13.80;99.90;;;;;;5020602;28;20208;-69
2021/05/27 08:59:54;;;;;;;3.90;3.60;;;13.90;99.90;;;;;;5022692;28;20439;-69
2021/05/27 09:02:19;;;;;;;4.17;3.70;;;14.00;99.90;;;;;;5019207;28;20189;-69
2021/05/27 09:04:45;;;;;;;7.53;3.73;;;14.00;99.90;;;;;;5021798;28;20363;-68
2021/05/27 09:07:13;;;;;;;11.03;4.20;;;14.10;99.90;;;;;;5020779;28;20263;-69
2021/05/27 09:09:54;;;;;;;6.03;3.60;;;14.00;99.90;;;;;;5022384;28;20185;-69
2021/05/27 09:12:27;;;;;;;4.33;4.03;;;14.10;99.90;;;;;;5021874;28;20445;-68
2021/05/27 09:14:54;;;;;;;4.60;3.20;;;14.20;99.90;;;;;;5015426;28;20522;-69
2021/05/27 09:17:20;;;;;;;3.80;3.50;;;14.10;99.90;;;;;;5023415;28;20904;-69
2021/05/27 09:20:16;;;;;;;4.53;3.50;;;14.10;99.90;;;;;;5024592;28;20447;-68
2021/05/27 09:22:43;;;;;;;4.33;3.90;;;14.40;99.90;;;;;;5019097;28;20187;-68
2021/05/27 09:25:23;;;;;;;4.27;3.80;;;14.50;99.90;;;;;;5026080;28;20772;-68
2021/05/27 09:27:49;;;;;;;3.87;3.57;;;14.30;99.90;;;;;;5026616;28;20492;-69
2021/05/27 09:30:16;;;;;;;4.40;4.00;;;14.50;99.90;;;;;;5023615;28;21158;-66
2021/05/27 09:32:46;;;;;;;4.17;3.63;;;14.40;99.90;;;;;;5025507;28;20322;-67
2021/05/27 09:35:15;;;;;;;4.00;3.47;;;14.30;99.90;;;;;;5023581;28;20800;-66
2021/05/27 09:37:52;;;;;;;3.60;3.10;;;14.40;99.90;;;;;;5027354;28;20477;-67
2021/05/27 09:40:37;;;;;;;3.83;3.53;;;14.40;99.90;;;;;;5027437;28;20909;-66
2021/05/27 09:43:08;;;;;;;5.60;3.93;;;14.40;99.90;;;;;;5025825;28;20427;-68
2021/05/27 09:45:35;;;;;;;4.30;3.63;;;14.40;99.90;;;;;;5024818;28;20953;-67
2021/05/27 09:48:22;;;;;;;3.83;3.53;;;14.50;99.90;;;;;;5025062;28;20443;-68
2021/05/27 09:50:48;;;;;;;5.13;3.23;;;14.40;99.90;;;;;;5024933;28;20893;-67
2021/05/27 09:53:17;;;;;;;3.73;3.20;;;14.30;99.90;;;;;;5024014;28;20447;-68
2021/05/27 09:55:43;;;;;;;6.83;3.70;;;14.30;99.90;;;;;;5025744;28;20475;-67
2021/05/27 09:58:12;;;;;;;4.60;3.83;;;14.30;99.90;;;;;;5029322;28;20471;-68
2021/05/27 10:00:39;;;;;;;3.60;3.37;;;14.50;99.90;;;;;;5026146;28;20921;-68
2021/05/27 10:03:29;;;;;;;4.07;3.60;;;14.60;99.90;;;;;;5027707;28;20521;-68
2021/05/27 10:05:56;;;;;;;3.70;3.40;;;14.60;99.90;;;;;;5026703;28;20471;-68
2021/05/27 10:08:23;;;;;;;4.33;3.63;;;14.80;99.90;;;;;;5023453;28;20439;-68
2021/05/27 10:10:50;;;;;;;3.77;3.47;;;14.80;99.90;;;;;;5025167;28;20442;-68
2021/05/27 10:13:18;;;;;;;5.80;4.50;;;14.80;99.90;;;;;;5025692;28;20846;-67
2021/05/27 10:15:46;;;;;;;5.40;4.90;;;14.70;99.90;;;;;;5019813;28;20462;-69
2021/05/27 10:18:16;;;;;;;4.53;4.23;;;14.80;99.90;;;;;;5019053;28;20477;-69
2021/05/27 10:20:42;;;;;;;4.27;3.97;;;14.90;99.90;;;;;;5020916;28;20424;-71
2021/05/27 10:23:08;;;;;;;5.17;3.27;;;15.00;99.90;;;;;;5021828;28;20951;-69
2021/05/27 10:25:34;;;;;;;5.47;3.90;;;15.00;99.90;;;;;;5025862;28;20469;-69
2021/05/27 10:28:04;;;;;;;3.43;3.23;;;15.00;99.90;;;;;;5022634;28;20439;-66
2021/05/27 10:30:37;;;;;;;5.03;4.20;;;15.10;99.90;;;;;;5018962;28;20929;-68
2021/05/27 10:33:04;;;;;;;4.63;4.23;;;15.30;99.90;;;;;;5023846;28;20446;-69
2021/05/27 10:35:59;;;;;;;4.10;3.80;;;15.40;99.90;;;;;;5017350;28;20474;-67
2021/05/27 10:38:38;;;;;;;4.47;4.17;;;15.40;99.90;;;;;;5016177;28;20561;-67
2021/05/27 10:41:10;;;;;;;3.93;3.63;;;15.40;99.90;;;;;;5017021;28;20458;-68
2021/05/27 10:43:36;;;;;;;4.23;3.47;;;15.40;99.90;;;;;;5021980;28;20431;-69
2021/05/27 10:46:05;;;;;;;4.30;3.90;;;15.20;99.90;;;;;;5018519;28;20473;-67
2021/05/27 10:48:47;;;;;;;3.83;3.63;;;15.10;99.90;;;;;;5023265;28;20443;-69
2021/05/27 10:51:26;;;;;;;5.30;4.80;;;15.20;99.90;;;;;;5021704;28;20435;-68
2021/05/27 10:53:54;;;;;;;8.37;6.03;;;15.10;99.90;;;;;;5018469;28;20518;-69
2021/05/27 10:56:39;;;;;;;4.10;3.50;;;15.20;99.90;;;;;;5020041;28;21184;-67
2021/05/27 10:59:10;;;;;;;4.90;4.27;;;15.30;99.90;;;;;;5023511;28;20489;-68
2021/05/27 11:01:36;;;;;;;10.10;4.90;;;15.30;99.90;;;;;;5018186;28;20542;-69
2021/05/27 11:04:06;;;;;;;3.60;3.40;;;15.50;99.90;;;;;;5021291;28;20440;-68
2021/05/27 11:06:34;;;;;;;5.27;4.20;;;15.70;99.90;;;;;;5024001;28;21345;-68
2021/05/27 11:09:20;;;;;;;5.37;4.00;;;15.80;99.90;;;;;;5020514;28;20444;-68
2021/05/27 11:11:56;;;;;;;4.23;3.83;;;15.80;99.90;;;;;;5018439;28;20792;-68
2021/05/27 11:14:23;;;;;;;4.30;3.77;;;15.80;99.90;;;;;;5025157;28;20522;-68
2021/05/27 11:17:01;;;;;;;4.50;3.60;;;15.60;99.90;;;;;;5019964;28;20481;-68
2021/05/27 11:19:52;;;;;;;4.27;3.97;;;15.50;99.90;;;;;;5021409;28;20434;-67
2021/05/27 11:25:16;;;;;;;4.30;3.80;;;15.50;99.90;;;;;;5019988;28;20723;-69
2021/05/27 11:27:46;;;;;;;5.07;3.97;;;15.50;99.90;;;;;;5019101;28;20477;-68
2021/05/27 11:30:24;;;;;;;5.13;3.73;;;15.50;99.90;;;;;;5018998;28;20948;-69
2021/05/27 11:32:53;;;;;;;5.43;3.80;;;15.40;99.90;;;;;;5018995;28;20449;-68
2021/05/27 11:35:21;;;;;;;4.20;3.90;;;15.20;99.90;;;;;;5022344;28;20435;-67
2021/05/27 11:37:48;;;;;;;4.07;3.57;;;15.20;99.90;;;;;;5019862;28;21056;-67
2021/05/27 11:40:16;;;;;;;4.10;3.80;;;15.20;99.90;;;;;;5018445;28;20443;-68
2021/05/27 11:42:51;;;;;;;4.20;3.80;;;15.30;99.90;;;;;;5016589;28;20443;-68
2021/05/27 11:45:18;;;;;;;5.73;4.57;;;15.20;99.90;;;;;;5019864;28;20427;-70
2021/05/27 11:50:49;;;;;;;7.43;4.50;;;15.40;99.90;;;;;;5019554;28;20450;-67
2021/05/27 11:53:19;;;;;;;4.37;3.97;;;15.50;99.90;;;;;;5021220;28;20963;-68
2021/05/27 11:55:56;;;;;;;5.70;4.37;;;15.40;99.90;;;;;;5018303;28;20570;-69
2021/05/27 11:58:39;;;;;;;5.80;4.00;;;15.50;99.90;;;;;;5017106;28;20818;-69
2021/05/27 12:01:15;;;;;;;4.00;3.73;;;15.50;99.90;;;;;;5019573;28;20530;-67
2021/05/27 12:03:57;;;;;;;4.37;4.00;;;15.40;99.90;;;;;;5019207;28;20431;-69
2021/05/27 12:06:22;;;;;;;3.77;3.47;;;15.30;99.90;;;;;;5018776;28;20489;-68
2021/05/27 12:08:48;;;;;;;4.43;4.00;;;15.40;99.90;;;;;;5025581;28;20823;-69
2021/05/27 12:11:13;;;;;;;4.17;3.77;;;15.40;99.90;;;;;;5020950;28;20633;-69
2021/05/27 12:13:39;;;;;;;4.60;4.30;;;15.40;99.90;;;;;;5021083;28;20283;-69
2021/05/27 12:16:05;;;;;;;3.63;3.43;;;15.50;99.90;;;;;;5020910;28;20216;-68
2021/05/27 12:18:30;;;;;;;5.43;4.07;;;15.40;99.90;;;;;;5023711;28;20205;-67
2021/05/27 12:20:56;;;;;;;4.50;4.10;;;15.50;99.90;;;;;;5024101;28;20195;-68
2021/05/27 12:23:22;;;;;;;5.17;4.67;;;15.50;99.90;;;;;;5023184;28;20181;-67
2021/05/27 12:25:50;;;;;;;4.33;4.03;;;15.70;99.90;;;;;;5021161;28;20298;-67
2021/05/27 12:28:20;;;;;;;4.60;4.20;;;15.90;99.90;;;;;;5023672;28;20239;-71
2021/05/27 12:31:07;;;;;;;4.20;3.90;;;16.00;99.90;;;;;;5020647;28;20450;-67
2021/05/27 12:33:33;;;;;;;5.37;4.87;;;16.00;99.90;;;;;;5021833;28;20439;-68
2021/05/27 12:36:06;;;;;;;5.77;4.67;;;16.00;99.90;;;;;;5020454;28;20467;-70
2021/05/27 12:38:32;;;;;;;4.30;3.90;;;16.00;99.90;;;;;;5023020;28;20642;-70
2021/05/27 12:41:03;;;;;;;4.73;4.00;;;16.00;99.90;;;;;;5021532;28;20443;-70
2021/05/27 12:43:38;;;;;;;4.63;4.23;;;16.00;99.90;;;;;;5020564;28;20193;-69
2021/05/27 12:46:11;;;;;;;5.03;4.53;;;15.90;99.90;;;;;;5023460;28;20449;-68
2021/05/27 12:48:57;;;;;;;3.80;3.50;;;16.00;99.90;;;;;;5020548;28;20446;-68
2021/05/27 12:51:26;;;;;;;4.17;3.77;;;15.90;99.90;;;;;;5024525;28;20445;-69
2021/05/27 12:53:54;;;;;;;5.43;3.53;;;15.80;99.90;;;;;;5024324;28;20475;-68
2021/05/27 12:56:28;;;;;;;4.13;3.70;;;15.70;99.90;;;;;;5023603;28;21015;-69
2021/05/27 12:59:04;;;;;;;4.37;3.73;;;15.80;99.90;;;;;;5014941;28;20894;-69
2021/05/27 13:01:46;;;;;;;4.53;3.90;;;15.80;99.90;;;;;;5022270;28;20438;-68
2021/05/27 13:04:24;;;;;;;4.80;4.13;;;15.90;99.90;;;;;;5020931;28;20769;-68